Home > Products > Valid Products > TAF

000
FTUS41 KRNK 290520
TAFBLF
TAF
KBLF 290520Z 2906/3006 VRB04KT P6SM BKN250
     FM290800 16005KT P6SM BKN150 OVC250
     FM291500 21012G21KT P6SM -SHRA BKN050 OVC100
      TEMPO 2916/2920 5SM -SHRA BKN035 OVC050
     FM292000 23015G25KT P6SM -SHRA BKN025 OVC050
     FM300200 28020G30KT 4SM -SHSN OVC010=



000
FTUS41 KRNK 290520
TAFROA
TAF
KROA 290520Z 2906/3006 VRB03KT P6SM SCT250
     FM290900 14005KT P6SM SCT150 BKN250
     FM291800 16007KT P6SM -SHRA BKN050 OVC100
     FM292200 20008G16KT P6SM OVC050
     FM300500 29015G25KT P6SM BKN035=



000
FTUS41 KRNK 290520
TAFBLF
TAF
KBLF 290520Z 2906/3006 VRB04KT P6SM BKN250
     FM290800 16005KT P6SM BKN150 OVC250
     FM291500 21012G21KT P6SM -SHRA BKN050 OVC100
      TEMPO 2916/2920 5SM -SHRA BKN035 OVC050
     FM292000 23015G25KT P6SM -SHRA BKN025 OVC050
     FM300200 28020G30KT 4SM -SHSN OVC010=



000
FTUS41 KRNK 290520
TAFROA
TAF
KROA 290520Z 2906/3006 VRB03KT P6SM SCT250
     FM290900 14005KT P6SM SCT150 BKN250
     FM291800 16007KT P6SM -SHRA BKN050 OVC100
     FM292200 20008G16KT P6SM OVC050
     FM300500 29015G25KT P6SM BKN035=



000
FTUS41 KRNK 290520
TAFDAN
TAF
KDAN 290520Z 2906/3006 00000KT P6SM SKC
     FM291200 18007KT P6SM SCT250
     FM291900 21008G16KT P6SM SCT150 BKN250
     FM292300 24007KT P6SM BKN060=



000
FTUS41 KRNK 290520
TAFLYH
TAF
KLYH 290520Z 2906/3006 00000KT P6SM SCT250
     FM291000 VRB04KT P6SM SCT150 BKN250
     FM291900 17006KT P6SM -SHRA BKN060 OVC110
     FM292300 19006KT P6SM OVC060=



000
FTUS41 KRNK 290520
TAFDAN
TAF
KDAN 290520Z 2906/3006 00000KT P6SM SKC
     FM291200 18007KT P6SM SCT250
     FM291900 21008G16KT P6SM SCT150 BKN250
     FM292300 24007KT P6SM BKN060=



000
FTUS41 KRNK 290520
TAFLYH
TAF
KLYH 290520Z 2906/3006 00000KT P6SM SCT250
     FM291000 VRB04KT P6SM SCT150 BKN250
     FM291900 17006KT P6SM -SHRA BKN060 OVC110
     FM292300 19006KT P6SM OVC060=



000
FTUS41 KRNK 290520
TAFLWB
TAF
KLWB 290520Z 2906/3006 VRB03KT P6SM BKN250
     FM290800 13005KT P6SM BKN150 OVC250
     FM291500 21008G16KT P6SM -SHRA BKN050 OVC100
      TEMPO 2916/2920 4SM -SHRA BKN035 OVC050
     FM292100 22010G20KT P6SM -SHRA BKN025 OVC050
     FM300300 27015G25KT 5SM -SHSN OVC015=



000
FTUS41 KRNK 290520
TAFLWB
TAF
KLWB 290520Z 2906/3006 VRB03KT P6SM BKN250
     FM290800 13005KT P6SM BKN150 OVC250
     FM291500 21008G16KT P6SM -SHRA BKN050 OVC100
      TEMPO 2916/2920 4SM -SHRA BKN035 OVC050
     FM292100 22010G20KT P6SM -SHRA BKN025 OVC050
     FM300300 27015G25KT 5SM -SHSN OVC015=



000
FTUS41 KRNK 282345 CCA
TAFLWB
TAF COR
KLWB 282345Z 2900/2924 00000KT P6SM BKN250
     FM290800 13005KT P6SM BKN150 OVC250
     FM291500 21008G16KT P6SM -SHRA BKN050 OVC100
      TEMPO 2916/2920 4SM -SHRA BKN035 OVC050
     FM292100 22010G20KT P6SM -SHRA BKN025 OVC050=



000
FTUS41 KRNK 282340
TAFDAN
TAF
KDAN 282340Z 2900/2924 00000KT P6SM SKC
     FM291200 18007KT P6SM SCT250
     FM291900 21008G16KT P6SM SCT150 BKN250=



000
FTUS41 KRNK 282340
TAFLWB
TAF
KLWB 282340Z 2900/2924 VRB03KT P6SM SKC
     FM291400 05003KT P6SM BKN250=



000
FTUS41 KRNK 282340
TAFROA
TAF
KROA 282340Z 2900/2924 VRB03KT P6SM SCT250
     FM291000 14005KT P6SM SCT150 BKN250
     FM291800 16007KT P6SM -SHRA BKN050 OVC100
     FM292200 20008G16KT P6SM BKN050=



000
FTUS41 KRNK 282340
TAFLYH
TAF
KLYH 282340Z 2900/2924 00000KT P6SM SCT250
     FM291100 VRB03KT P6SM SCT150 BKN250
     FM291900 17006KT P6SM -SHRA BKN060 OVC110
     FM292300 19006KT P6SM BKN060=



000
FTUS41 KRNK 282340
TAFBLF
TAF
KBLF 282340Z 2900/2924 VRB04KT P6SM BKN250
     FM290800 16005KT P6SM BKN150 OVC250
     FM291500 21012G21KT P6SM -SHRA BKN050 OVC100
      TEMPO 2916/2920 5SM -SHRA BKN035 OVC050
     FM292000 23015G25KT P6SM -SHRA BKN025 OVC050=



000
FTUS41 KRNK 282340
TAFLWB
TAF
KLWB 282340Z 2900/2924 VRB03KT P6SM SKC
     FM291400 05003KT P6SM BKN250=



000
FTUS41 KRNK 282340
TAFBLF
TAF
KBLF 282340Z 2900/2924 VRB04KT P6SM BKN250
     FM290800 16005KT P6SM BKN150 OVC250
     FM291500 21012G21KT P6SM -SHRA BKN050 OVC100
      TEMPO 2916/2920 5SM -SHRA BKN035 OVC050
     FM292000 23015G25KT P6SM -SHRA BKN025 OVC050=



000
FTUS41 KRNK 282340
TAFDAN
TAF
KDAN 282340Z 2900/2924 00000KT P6SM SKC
     FM291200 18007KT P6SM SCT250
     FM291900 21008G16KT P6SM SCT150 BKN250=



000
FTUS41 KRNK 282340
TAFROA
TAF
KROA 282340Z 2900/2924 VRB03KT P6SM SCT250
     FM291000 14005KT P6SM SCT150 BKN250
     FM291800 16007KT P6SM -SHRA BKN050 OVC100
     FM292200 20008G16KT P6SM BKN050=



000
FTUS41 KRNK 282340
TAFLYH
TAF
KLYH 282340Z 2900/2924 00000KT P6SM SCT250
     FM291100 VRB03KT P6SM SCT150 BKN250
     FM291900 17006KT P6SM -SHRA BKN060 OVC110
     FM292300 19006KT P6SM BKN060=



000
FTUS41 KRNK 281723
TAFROA
TAF
KROA 281723Z 2818/2918 31010KT P6SM SKC
     FM290000 VRB03KT P6SM SKC
     FM290600 VRB03KT P6SM BKN250
     FM291500 16005KT P6SM BKN200=



000
FTUS41 KRNK 281723
TAFDAN
TAF
KDAN 281723Z 2818/2918 34007KT P6SM SKC
     FM290000 00000KT P6SM SKC
     FM291500 20007KT P6SM BKN250=



000
FTUS41 KRNK 281723
TAFLWB
TAF
KLWB 281723Z 2818/2918 VRB03KT P6SM SCT015
     FM282300 VRB03KT P6SM SKC
     FM291400 05003KT P6SM BKN250=



000
FTUS41 KRNK 281723
TAFLYH
TAF
KLYH 281723Z 2818/2918 35008KT P6SM SKC
     FM290000 00000KT P6SM SKC
     FM291400 19009KT P6SM BKN250=



000
FTUS41 KRNK 281723
TAFBLF
TAF
KBLF 281723Z 2818/2918 30006KT P6SM SCT015
     FM282300 VRB03KT P6SM SKC
     FM290800 16005KT P6SM BKN250
     FM291500 21010G18KT P6SM BKN150=



000
FTUS41 KRNK 281723
TAFLWB
TAF
KLWB 281723Z 2818/2918 VRB03KT P6SM SCT015
     FM282300 VRB03KT P6SM SKC
     FM291400 05003KT P6SM BKN250=



000
FTUS41 KRNK 281723
TAFLYH
TAF
KLYH 281723Z 2818/2918 35008KT P6SM SKC
     FM290000 00000KT P6SM SKC
     FM291400 19009KT P6SM BKN250=



000
FTUS41 KRNK 281723
TAFDAN
TAF
KDAN 281723Z 2818/2918 34007KT P6SM SKC
     FM290000 00000KT P6SM SKC
     FM291500 20007KT P6SM BKN250=



000
FTUS41 KRNK 281723
TAFROA
TAF
KROA 281723Z 2818/2918 31010KT P6SM SKC
     FM290000 VRB03KT P6SM SKC
     FM290600 VRB03KT P6SM BKN250
     FM291500 16005KT P6SM BKN200=



000
FTUS41 KRNK 281723
TAFBLF
TAF
KBLF 281723Z 2818/2918 30006KT P6SM SCT015
     FM282300 VRB03KT P6SM SKC
     FM290800 16005KT P6SM BKN250
     FM291500 21010G18KT P6SM BKN150=



000
FTUS41 KRNK 281612 CCA
TAFLYH
TAF COR
KLYH 281612Z 2816/2912 34007G17KT P6SM SKC
     FM282300 00000KT P6SM SCT250=



000
FTUS41 KRNK 281612 CCA
TAFLYH
TAF COR
KLYH 281612Z 2816/2912 34007G17KT P6SM SKC
     FM282300 00000KT P6SM SCT250=



000
FTUS41 KRNK 281603 AAA
TAFLYH
TAF AMD
KLYH 281603Z 2816/2912 34007G27KT P6SM SKC
     FM282300 00000KT P6SM SCT250=



000
FTUS41 KRNK 281527 AAA
TAFLWB
TAF AMD
KLWB 281527Z 2815/2912 25004KT P6SM BKN018
      TEMPO 2815/2817 SCT018
     FM281700 31006KT P6SM SKC
     FM282200 VRB03KT P6SM SCT250=



000
FTUS41 KRNK 281527 AAA
TAFLWB
TAF AMD
KLWB 281527Z 2815/2912 25004KT P6SM BKN018
      TEMPO 2815/2817 SCT018
     FM281700 31006KT P6SM SKC
     FM282200 VRB03KT P6SM SCT250=



000
FTUS41 KRNK 281506 AAA
TAFROA
TAF AMD
KROA 281506Z 2815/2912 31010G18KT P6SM SKC
     FM282300 VRB03KT P6SM SCT250=



000
FTUS41 KRNK 281506 AAA
TAFROA
TAF AMD
KROA 281506Z 2815/2912 31010G18KT P6SM SKC
     FM282300 VRB03KT P6SM SCT250=



000
FTUS41 KRNK 281505 AAA
TAFBLF
TAF AMD
KBLF 281505Z 2815/2912 30006KT P6SM -SN OVC009
     FM281700 32006KT P6SM SCT015
     FM281900 VRB03KT P6SM SKC
     FM290200 15005KT P6SM SCT250=



000
FTUS41 KRNK 281505 AAA
TAFBLF
TAF AMD
KBLF 281505Z 2815/2912 30006KT P6SM -SN OVC009
     FM281700 32006KT P6SM SCT015
     FM281900 VRB03KT P6SM SKC
     FM290200 15005KT P6SM SCT250=



000
FTUS41 KRNK 281139
TAFLWB
TAF
KLWB 281139Z 2812/2912 27005KT P6SM SCT025
      TEMPO 2812/2814 P6SM -SHSN BKN025
     FM281500 31006KT P6SM SKC
     FM282200 VRB03KT P6SM SCT250=



000
FTUS41 KRNK 281139
TAFLWB
TAF
KLWB 281139Z 2812/2912 27005KT P6SM SCT025
      TEMPO 2812/2814 P6SM -SHSN BKN025
     FM281500 31006KT P6SM SKC
     FM282200 VRB03KT P6SM SCT250=



000
FTUS41 KRNK 281139
TAFROA
TAF
KROA 281139Z 2812/2912 33007KT P6SM SKC
     FM282300 VRB03KT P6SM SCT250=



000
FTUS41 KRNK 281139
TAFLYH
TAF
KLYH 281139Z 2812/2912 34005KT P6SM SKC
     FM282300 00000KT P6SM SCT250=



000
FTUS41 KRNK 281139
TAFBLF
TAF
KBLF 281139Z 2812/2912 32006KT P6SM -SN OVC009
     FM281500 32006KT P6SM SCT015
     FM281900 VRB03KT P6SM SKC
     FM290200 15005KT P6SM SCT250=



000
FTUS41 KRNK 281139
TAFDAN
TAF
KDAN 281139Z 2812/2912 33007KT P6SM SKC
     FM290000 00000KT P6SM SCT250=



000
FTUS41 KRNK 280946 AAA
TAFROA
TAF AMD
KROA 280946Z 2810/2906 30010KT P6SM FEW035
     FM281300 33007KT P6SM SKC
     FM282300 VRB04KT P6SM SCT250=



000
FTUS41 KRNK 280946 AAA
TAFROA
TAF AMD
KROA 280946Z 2810/2906 30010KT P6SM FEW035
     FM281300 33007KT P6SM SKC
     FM282300 VRB04KT P6SM SCT250=



000
FTUS41 KRNK 280946 AAA
TAFROA
TAF AMD
KROA 280946Z 2810/2906 30010KT P6SM FEW035
     FM281300 33007KT P6SM SKC
     FM282300 VRB04KT P6SM SCT250=



000
FTUS41 KRNK 280946 AAA
TAFROA
TAF AMD
KROA 280946Z 2810/2906 30010KT P6SM FEW035
     FM281300 33007KT P6SM SKC
     FM282300 VRB04KT P6SM SCT250=



000
FTUS41 KRNK 280943 AAA
TAFLWB
TAF AMD
KLWB 280943Z 2810/2906 27005KT P6SM SCT025
      TEMPO 2810/2814 P6SM -SHSN BKN025
     FM281500 31006KT P6SM SKC
     FM282200 VRB03KT P6SM SCT250=



000
FTUS41 KRNK 280943 AAA
TAFLWB
TAF AMD
KLWB 280943Z 2810/2906 27005KT P6SM SCT025
      TEMPO 2810/2814 P6SM -SHSN BKN025
     FM281500 31006KT P6SM SKC
     FM282200 VRB03KT P6SM SCT250=



000
FTUS41 KRNK 280943 AAA
TAFLWB
TAF AMD
KLWB 280943Z 2810/2906 27005KT P6SM SCT025
      TEMPO 2810/2814 P6SM -SHSN BKN025
     FM281500 31006KT P6SM SKC
     FM282200 VRB03KT P6SM SCT250=



000
FTUS41 KRNK 280941 AAA
TAFBLF
TAF AMD
KBLF 280941Z 2810/2906 30008KT P6SM -SN OVC010
      TEMPO 2810/2813 5SM -SN OVC008
     FM281500 31008KT P6SM SCT015
     FM282200 VRB05KT P6SM SCT250=



000
FTUS41 KRNK 280941 AAA
TAFBLF
TAF AMD
KBLF 280941Z 2810/2906 30008KT P6SM -SN OVC010
      TEMPO 2810/2813 5SM -SN OVC008
     FM281500 31008KT P6SM SCT015
     FM282200 VRB05KT P6SM SCT250=



000
FTUS41 KRNK 280941 AAA
TAFBLF
TAF AMD
KBLF 280941Z 2810/2906 30008KT P6SM -SN OVC010
      TEMPO 2810/2813 5SM -SN OVC008
     FM281500 31008KT P6SM SCT015
     FM282200 VRB05KT P6SM SCT250=



000
FTUS41 KRNK 280941 AAA
TAFBLF
TAF AMD
KBLF 280941Z 2810/2906 30008KT P6SM -SN OVC010
      TEMPO 2810/2813 5SM -SN OVC008
     FM281500 31008KT P6SM SCT015
     FM282200 VRB05KT P6SM SCT250=



000
FTUS41 KRNK 280520
TAFLWB
TAF
KLWB 280520Z 2806/2906 30008G17KT 6SM -SN OVC023
      TEMPO 2806/2808 5SM -SN
     FM281500 31006KT P6SM SCT025
     FM282200 VRB03KT P6SM SCT250=



000
FTUS41 KRNK 280520
TAFBLF
TAF
KBLF 280520Z 2806/2906 30010G20KT P6SM OVC015
     FM281500 31008KT P6SM SCT020
     FM282200 VRB05KT P6SM SCT250=



000
FTUS41 KRNK 280520
TAFROA
TAF
KROA 280520Z 2806/2906 32012G22KT P6SM SCT035
     FM281300 33007KT P6SM SKC
     FM282300 VRB04KT P6SM SCT250=



000
FTUS41 KRNK 280520
TAFDAN
TAF
KDAN 280520Z 2806/2906 33008G17KT P6SM SKC
     FM281300 34006KT P6SM SKC=



000
FTUS41 KRNK 280520
TAFROA
TAF
KROA 280520Z 2806/2906 32012G22KT P6SM SCT035
     FM281300 33007KT P6SM SKC
     FM282300 VRB04KT P6SM SCT250=



000
FTUS41 KRNK 280520
TAFLYH
TAF
KLYH 280520Z 2806/2906 32006KT P6SM FEW040
     FM281300 34005KT P6SM SKC
     FM282300 00000KT P6SM SCT250=



000
FTUS41 KRNK 280520
TAFDAN
TAF
KDAN 280520Z 2806/2906 33008G17KT P6SM SKC
     FM281300 34006KT P6SM SKC=



000
FTUS41 KRNK 280520
TAFLWB
TAF
KLWB 280520Z 2806/2906 30008G17KT 6SM -SN OVC023
      TEMPO 2806/2808 5SM -SN
     FM281500 31006KT P6SM SCT025
     FM282200 VRB03KT P6SM SCT250=



000
FTUS41 KRNK 280520
TAFBLF
TAF
KBLF 280520Z 2806/2906 30010G20KT P6SM OVC015
     FM281500 31008KT P6SM SCT020
     FM282200 VRB05KT P6SM SCT250=



000
FTUS41 KRNK 280520
TAFLYH
TAF
KLYH 280520Z 2806/2906 32006KT P6SM FEW040
     FM281300 34005KT P6SM SKC
     FM282300 00000KT P6SM SCT250=



000
FTUS41 KRNK 280150 AAA
TAFBLF
TAF AMD
KBLF 280150Z 2802/2824 30011G21KT P6SM SCT015
      TEMPO 2802/2803 -SHSN OVC015
     FM280400 30010G20KT P6SM OVC012
     FM281500 31008KT P6SM SCT020
     FM282200 VRB05KT P6SM SCT250=



000
FTUS41 KRNK 280150 AAA
TAFBLF
TAF AMD
KBLF 280150Z 2802/2824 30011G21KT P6SM SCT015
      TEMPO 2802/2803 -SHSN OVC015
     FM280400 30010G20KT P6SM OVC012
     FM281500 31008KT P6SM SCT020
     FM282200 VRB05KT P6SM SCT250=



000
FTUS41 KRNK 272342
TAFLYH
TAF
KLYH 272342Z 2800/2824 32006KT P6SM SKC
     FM281300 34005KT P6SM SKC
     FM282300 00000KT P6SM SCT250=



000
FTUS41 KRNK 272342
TAFDAN
TAF
KDAN 272342Z 2800/2824 33008KT P6SM SKC
     FM281300 34006KT P6SM SKC=



000
FTUS41 KRNK 272342
TAFROA
TAF
KROA 272342Z 2800/2824 32015G25KT P6SM SCT050
      TEMPO 2802/2806 BKN050
     FM281300 33007KT P6SM SKC
     FM282300 VRB04KT P6SM SCT250=



000
FTUS41 KRNK 272342
TAFLWB
TAF
KLWB 272342Z 2800/2824 30008G16KT P6SM -SN BKN018
     FM280300 30010G20KT P6SM OVC015
     FM281400 31006KT P6SM SCT023
     FM282200 VRB03KT P6SM SCT250=



000
FTUS41 KRNK 272342
TAFBLF
TAF
KBLF 272342Z 2800/2824 30011G21KT P6SM SCT015
      TEMPO 2801/2803 BKN015
     FM280300 30010G20KT P6SM OVC012
     FM281500 31008KT P6SM SCT020
     FM282200 VRB05KT P6SM SCT250=



000
FTUS41 KRNK 272342
TAFDAN
TAF
KDAN 272342Z 2800/2824 33008KT P6SM SKC
     FM281300 34006KT P6SM SKC=



000
FTUS41 KRNK 272342
TAFBLF
TAF
KBLF 272342Z 2800/2824 30011G21KT P6SM SCT015
      TEMPO 2801/2803 BKN015
     FM280300 30010G20KT P6SM OVC012
     FM281500 31008KT P6SM SCT020
     FM282200 VRB05KT P6SM SCT250=



000
FTUS41 KRNK 272342
TAFROA
TAF
KROA 272342Z 2800/2824 32015G25KT P6SM SCT050
      TEMPO 2802/2806 BKN050
     FM281300 33007KT P6SM SKC
     FM282300 VRB04KT P6SM SCT250=



000
FTUS41 KRNK 272342
TAFLYH
TAF
KLYH 272342Z 2800/2824 32006KT P6SM SKC
     FM281300 34005KT P6SM SKC
     FM282300 00000KT P6SM SCT250=



000
FTUS41 KRNK 272342
TAFLWB
TAF
KLWB 272342Z 2800/2824 30008G16KT P6SM -SN BKN018
     FM280300 30010G20KT P6SM OVC015
     FM281400 31006KT P6SM SCT023
     FM282200 VRB03KT P6SM SCT250=



000
FTUS41 KRNK 271721
TAFROA
TAF
KROA 271721Z 2718/2818 31010KT P6SM SCT250
     FM280000 32013G26KT P6SM SCT040
     FM280600 32010G20KT P6SM SCT045
     FM281200 30008KT P6SM SKC=



000
FTUS41 KRNK 271721
TAFLYH
TAF
KLYH 271721Z 2718/2818 01010KT P6SM SKC
     FM272300 31007KT P6SM SCT100
     FM281200 28004KT P6SM SKC=



000
FTUS41 KRNK 271721
TAFLWB
TAF
KLWB 271721Z 2718/2818 27012KT P6SM SCT025
     FM272200 30007KT P6SM BKN035
     FM280100 32006KT P6SM BKN020
     FM280600 32007KT P6SM BKN020
     FM281500 27005KT P6SM SCT250=



000
FTUS41 KRNK 271721
TAFDAN
TAF
KDAN 271721Z 2718/2818 34011KT P6SM SKC
     FM280000 32008KT P6SM SCT250
     FM281400 34007KT P6SM SKC=



000
FTUS41 KRNK 271721
TAFBLF
TAF
KBLF 271721Z 2718/2818 30011G22KT P6SM SKC
     FM280000 30008KT P6SM BKN015
     FM280700 30007KT P6SM -SHSN OVC012
     FM281500 29005KT P6SM SCT250=



000
FTUS41 KRNK 271721
TAFROA
TAF
KROA 271721Z 2718/2818 31010KT P6SM SCT250
     FM280000 32013G26KT P6SM SCT040
     FM280600 32010G20KT P6SM SCT045
     FM281200 30008KT P6SM SKC=



000
FTUS41 KRNK 271721
TAFDAN
TAF
KDAN 271721Z 2718/2818 34011KT P6SM SKC
     FM280000 32008KT P6SM SCT250
     FM281400 34007KT P6SM SKC=



000
FTUS41 KRNK 271721
TAFLWB
TAF
KLWB 271721Z 2718/2818 27012KT P6SM SCT025
     FM272200 30007KT P6SM BKN035
     FM280100 32006KT P6SM BKN020
     FM280600 32007KT P6SM BKN020
     FM281500 27005KT P6SM SCT250=



000
FTUS41 KRNK 271721
TAFLYH
TAF
KLYH 271721Z 2718/2818 01010KT P6SM SKC
     FM272300 31007KT P6SM SCT100
     FM281200 28004KT P6SM SKC=



000
FTUS41 KRNK 271721
TAFBLF
TAF
KBLF 271721Z 2718/2818 30011G22KT P6SM SKC
     FM280000 30008KT P6SM BKN015
     FM280700 30007KT P6SM -SHSN OVC012
     FM281500 29005KT P6SM SCT250=



000
FTUS41 KRNK 271447 AAA
TAFBLF
TAF AMD
KBLF 271447Z 2715/2812 28009KT P6SM SCT020
     FM271700 31009G18KT P6SM SCT015 BKN040
     FM272300 30008KT P6SM BKN015=



000
FTUS41 KRNK 271447 AAA
TAFBLF
TAF AMD
KBLF 271447Z 2715/2812 28009KT P6SM SCT020
     FM271700 31009G18KT P6SM SCT015 BKN040
     FM272300 30008KT P6SM BKN015=



000
FTUS41 KRNK 271120
TAFLWB
TAF
KLWB 271120Z 2712/2812 28005KT P6SM SCT025
      TEMPO 2712/2714 BKN025
     FM272000 30007KT P6SM BKN035
     FM280000 32006KT P6SM BKN020
     FM280600 32007KT P6SM SCT030=



000
FTUS41 KRNK 271120
TAFLYH
TAF
KLYH 271120Z 2712/2812 31006KT P6SM BKN060
     FM271600 32007KT P6SM SCT040=



000
FTUS41 KRNK 271120
TAFROA
TAF
KROA 271120Z 2712/2812 30007KT P6SM SKC
     FM271700 31012G20KT P6SM SCT035
     FM280100 32013G26KT P6SM SCT040
     FM280600 32009G18KT P6SM SKC=



000
FTUS41 KRNK 271120
TAFBLF
TAF
KBLF 271120Z 2712/2812 31007G15KT P6SM OVC015
     FM271700 31009G18KT P6SM SCT015 BKN040
     FM272300 30008KT P6SM BKN015=



000
FTUS41 KRNK 271120
TAFDAN
TAF
KDAN 271120Z 2712/2812 32007KT P6SM BKN050
     FM271700 32009KT P6SM SCT040=



000
FTUS41 KRNK 271120
TAFLWB
TAF
KLWB 271120Z 2712/2812 28005KT P6SM SCT025
      TEMPO 2712/2714 BKN025
     FM272000 30007KT P6SM BKN035
     FM280000 32006KT P6SM BKN020
     FM280600 32007KT P6SM SCT030=



000
FTUS41 KRNK 271120
TAFDAN
TAF
KDAN 271120Z 2712/2812 32007KT P6SM BKN050
     FM271700 32009KT P6SM SCT040=



000
FTUS41 KRNK 271120
TAFBLF
TAF
KBLF 271120Z 2712/2812 31007G15KT P6SM OVC015
     FM271700 31009G18KT P6SM SCT015 BKN040
     FM272300 30008KT P6SM BKN015=



000
FTUS41 KRNK 271031 AAA
TAFLWB
TAF AMD
KLWB 271031Z 2711/2806 29004KT P6SM SCT015
      TEMPO 2711/2713 6SM -SHSN OVC015
     FM271700 30008G16KT P6SM -SHSN SCT013 OVC015
     FM272300 30006KT P6SM BKN018=



000
FTUS41 KRNK 271031 AAA
TAFLWB
TAF AMD
KLWB 271031Z 2711/2806 29004KT P6SM SCT015
      TEMPO 2711/2713 6SM -SHSN OVC015
     FM271700 30008G16KT P6SM -SHSN SCT013 OVC015
     FM272300 30006KT P6SM BKN018=



000
FTUS41 KRNK 270630 AAA
TAFLYH
TAF AMD
KLYH 270630Z 2706/2806 32005KT P6SM SCT035 OVC070
      TEMPO 2707/2708 6SM -SN OVC030
     FM271300 33010G20KT P6SM -SHSN BKN035
     FM271600 32010G20KT P6SM SCT040=



000
FTUS41 KRNK 270630 AAA
TAFLYH
TAF AMD
KLYH 270630Z 2706/2806 32005KT P6SM SCT035 OVC070
      TEMPO 2707/2708 6SM -SN OVC030
     FM271300 33010G20KT P6SM -SHSN BKN035
     FM271600 32010G20KT P6SM SCT040=



000
FTUS41 KRNK 270520
TAFROA
TAF
KROA 270520Z 2706/2806 31012G22KT P6SM -SN SCT025 OVC060
      TEMPO 2706/2708 BKN025
     FM271300 32015G25KT P6SM SCT035
     FM272300 32010G18KT P6SM FEW040=



000
FTUS41 KRNK 270520
TAFLYH
TAF
KLYH 270520Z 2706/2806 34009G17KT P6SM -SN BKN030 OVC050
      TEMPO 2706/2710 6SM -SN BR OVC030
     FM271300 33010G20KT P6SM -SHSN BKN035
     FM271600 32010G20KT P6SM SCT040=



000
FTUS41 KRNK 270520
TAFDAN
TAF
KDAN 270520Z 2706/2806 33011G21KT P6SM OVC030
     FM270800 33010G20KT P6SM BKN035 OVC060
     FM271300 32011G21KT P6SM SCT040
     FM272300 32008KT P6SM SKC=



000
FTUS41 KRNK 270520
TAFLWB
TAF
KLWB 270520Z 2706/2806 29008G16KT 6SM -SN OVC015
      TEMPO 2706/2710 5SM -SN OVC008
     FM271200 29009G17KT 4SM -SN OVC012
     FM271700 30008G16KT P6SM -SHSN SCT013 OVC015
      TEMPO 2717/2721 5SM -SHSN BKN013
     FM272300 30006KT P6SM BKN018=



000
FTUS41 KRNK 270520
TAFLYH
TAF
KLYH 270520Z 2706/2806 34009G17KT P6SM -SN BKN030 OVC050
      TEMPO 2706/2710 6SM -SN BR OVC030
     FM271300 33010G20KT P6SM -SHSN BKN035
     FM271600 32010G20KT P6SM SCT040=



000
FTUS41 KRNK 270520
TAFBLF
TAF
KBLF 270520Z 2706/2806 30012G22KT 6SM -SN OVC006
     FM271100 29011G21KT 4SM -SN OVC004
     FM271600 30010G20KT P6SM -SHSN SCT007 OVC013
      TEMPO 2716/2720 5SM -SHSN
     FM272300 30008KT P6SM BKN015=



000
FTUS41 KRNK 270520
TAFDAN
TAF
KDAN 270520Z 2706/2806 33011G21KT P6SM OVC030
     FM270800 33010G20KT P6SM BKN035 OVC060
     FM271300 32011G21KT P6SM SCT040
     FM272300 32008KT P6SM SKC=



000
FTUS41 KRNK 270520
TAFBLF
TAF
KBLF 270520Z 2706/2806 30012G22KT 6SM -SN OVC006
     FM271100 29011G21KT 4SM -SN OVC004
     FM271600 30010G20KT P6SM -SHSN SCT007 OVC013
      TEMPO 2716/2720 5SM -SHSN
     FM272300 30008KT P6SM BKN015=



000
FTUS41 KRNK 270520
TAFROA
TAF
KROA 270520Z 2706/2806 31012G22KT P6SM -SN SCT025 OVC060
      TEMPO 2706/2708 BKN025
     FM271300 32015G25KT P6SM SCT035
     FM272300 32010G18KT P6SM FEW040=



000
FTUS41 KRNK 270520
TAFLWB
TAF
KLWB 270520Z 2706/2806 29008G16KT 6SM -SN OVC015
      TEMPO 2706/2710 5SM -SN OVC008
     FM271200 29009G17KT 4SM -SN OVC012
     FM271700 30008G16KT P6SM -SHSN SCT013 OVC015
      TEMPO 2717/2721 5SM -SHSN BKN013
     FM272300 30006KT P6SM BKN018=



000
FTUS41 KRNK 270235 AAA
TAFDAN
TAF AMD
KDAN 270235Z 2703/2724 36007KT P6SM -SHRA BKN008 OVC015
     FM270330 35008KT P6SM -SHRA SCT015 BKN035 OVC050
     FM270400 33009G17KT P6SM SCT030 BKN040
     FM271300 32011G21KT P6SM SCT040=



000
FTUS41 KRNK 270235 AAA
TAFDAN
TAF AMD
KDAN 270235Z 2703/2724 36007KT P6SM -SHRA BKN008 OVC015
     FM270330 35008KT P6SM -SHRA SCT015 BKN035 OVC050
     FM270400 33009G17KT P6SM SCT030 BKN040
     FM271300 32011G21KT P6SM SCT040=



000
FTUS41 KRNK 270201 AAA
TAFLYH
TAF AMD
KLYH 270201Z 2702/2724 02007KT P6SM BKN008 OVC013
     FM270300 36008KT P6SM -SHRA SCT015 BKN035 OVC050
     FM270500 34009G17KT P6SM -SN SCT025 OVC035
     FM271300 33010G20KT P6SM SCT040=



000
FTUS41 KRNK 270201 AAA
TAFLYH
TAF AMD
KLYH 270201Z 2702/2724 02007KT P6SM BKN008 OVC013
     FM270300 36008KT P6SM -SHRA SCT015 BKN035 OVC050
     FM270500 34009G17KT P6SM -SN SCT025 OVC035
     FM271300 33010G20KT P6SM SCT040=



000
FTUS41 KRNK 262342
TAFLWB
TAF
KLWB 262342Z 2700/2724 29008G16KT 6SM -SN SCT011 OVC023
      TEMPO 2701/2705 1SM -SN BR OVC012
     FM270500 29008G16KT 6SM -SN OVC015
     FM271200 29009G17KT 4SM -SN OVC012
      TEMPO 2713/2717 1SM -SN BR
     FM271700 30008G16KT P6SM -SHSN SCT013 OVC015
      TEMPO 2717/2721 5SM -SHSN BKN013=



000
FTUS41 KRNK 262342
TAFLYH
TAF
KLYH 262342Z 2700/2724 02008KT 5SM BR BKN008 OVC013
     FM270200 36007KT P6SM -SHRA SCT015 BKN035 OVC050
     FM270500 34009G17KT P6SM -SN SCT025 OVC035
     FM271300 33010G20KT P6SM SCT040=



000
FTUS41 KRNK 262342
TAFDAN
TAF
KDAN 262342Z 2700/2724 01007KT P6SM OVC013
     FM270200 36008KT P6SM -SHRA SCT015 BKN035 OVC050
     FM270400 33009G17KT P6SM SCT030 BKN040
     FM271300 32011G21KT P6SM SCT040=



000
FTUS41 KRNK 262342
TAFROA
TAF
KROA 262342Z 2700/2724 31012G22KT P6SM -SHRA BKN025 OVC045
      TEMPO 2700/2702 5SM -SHRA
     FM270400 31013G23KT P6SM -SN SCT025 BKN035
     FM271300 32015G25KT P6SM SCT035=



000
FTUS41 KRNK 262342
TAFBLF
TAF
KBLF 262342Z 2700/2724 28010G20KT 6SM -SN OVC007
      TEMPO 2700/2704 1SM -SN BR OVC004
     FM270400 29010G20KT 6SM -SN OVC005
     FM271100 29010G20KT 4SM -SN OVC003
      TEMPO 2712/2716 1SM -SN BR OVC002
     FM271600 30009KT P6SM -SHSN SCT007 OVC013
      TEMPO 2716/2720 5SM -SHSN=



000
FTUS41 KRNK 262342
TAFBLF
TAF
KBLF 262342Z 2700/2724 28010G20KT 6SM -SN OVC007
      TEMPO 2700/2704 1SM -SN BR OVC004
     FM270400 29010G20KT 6SM -SN OVC005
     FM271100 29010G20KT 4SM -SN OVC003
      TEMPO 2712/2716 1SM -SN BR OVC002
     FM271600 30009KT P6SM -SHSN SCT007 OVC013
      TEMPO 2716/2720 5SM -SHSN=



000
FTUS41 KRNK 262342
TAFDAN
TAF
KDAN 262342Z 2700/2724 01007KT P6SM OVC013
     FM270200 36008KT P6SM -SHRA SCT015 BKN035 OVC050
     FM270400 33009G17KT P6SM SCT030 BKN040
     FM271300 32011G21KT P6SM SCT040=



000
FTUS41 KRNK 262342
TAFLWB
TAF
KLWB 262342Z 2700/2724 29008G16KT 6SM -SN SCT011 OVC023
      TEMPO 2701/2705 1SM -SN BR OVC012
     FM270500 29008G16KT 6SM -SN OVC015
     FM271200 29009G17KT 4SM -SN OVC012
      TEMPO 2713/2717 1SM -SN BR
     FM271700 30008G16KT P6SM -SHSN SCT013 OVC015
      TEMPO 2717/2721 5SM -SHSN BKN013=



000
FTUS41 KRNK 262342
TAFLYH
TAF
KLYH 262342Z 2700/2724 02008KT 5SM BR BKN008 OVC013
     FM270200 36007KT P6SM -SHRA SCT015 BKN035 OVC050
     FM270500 34009G17KT P6SM -SN SCT025 OVC035
     FM271300 33010G20KT P6SM SCT040=



000
FTUS41 KRNK 262342
TAFROA
TAF
KROA 262342Z 2700/2724 31012G22KT P6SM -SHRA BKN025 OVC045
      TEMPO 2700/2702 5SM -SHRA
     FM270400 31013G23KT P6SM -SN SCT025 BKN035
     FM271300 32015G25KT P6SM SCT035=



000
FTUS41 KRNK 262300 AAA
TAFBLF
TAF AMD
KBLF 262300Z 2623/2718 28010G20KT 4SM -RASN OVC007
      TEMPO 2623/2701 1/2SM SN FG OVC004
     FM270100 30010G16KT 4SM -SN OVC007
     FM270600 30009KT 6SM -SN OVC012=



000
FTUS41 KRNK 262300 AAA
TAFBLF
TAF AMD
KBLF 262300Z 2623/2718 28010G20KT 4SM -RASN OVC007
      TEMPO 2623/2701 1/2SM SN FG OVC004
     FM270100 30010G16KT 4SM -SN OVC007
     FM270600 30009KT 6SM -SN OVC012=



000
FTUS41 KRNK 262047 AAA
TAFLWB
TAF AMD
KLWB 262047Z 2621/2718 27007KT 6SM -RASN BR SCT004 OVC017
     FM262300 31010G19KT 2SM -SN BR OVC004
      TEMPO 2623/2701 1SM -SN VV002
     FM270300 31010G18KT 4SM -SN BR SCT004 OVC012
     FM270800 29005KT P6SM -SHSN OVC015=



000
FTUS41 KRNK 262047 AAA
TAFLWB
TAF AMD
KLWB 262047Z 2621/2718 27007KT 6SM -RASN BR SCT004 OVC017
     FM262300 31010G19KT 2SM -SN BR OVC004
      TEMPO 2623/2701 1SM -SN VV002
     FM270300 31010G18KT 4SM -SN BR SCT004 OVC012
     FM270800 29005KT P6SM -SHSN OVC015=



000
FTUS41 KRNK 261740
TAFLWB
TAF
KLWB 261740Z 2618/2718 VRB03KT 5SM -RASN BR BKN004 OVC015
     FM262000 30007KT 3SM -RASN BR OVC004
     FM262200 31010G19KT 2SM -SN BR OVC004
      TEMPO 2622/2701 1SM -SN VV002
     FM270300 31010G18KT 4SM -SN BR SCT004 OVC012
     FM270800 29005KT P6SM -SHSN OVC015=



000
FTUS41 KRNK 261740
TAFDAN
TAF
KDAN 261740Z 2618/2718 04007KT P6SM OVC015
     FM262200 34008KT 6SM -RA OVC019
     FM270100 32012G19KT P6SM OVC035
     FM270800 32010KT P6SM BKN050=



000
FTUS41 KRNK 261740
TAFLYH
TAF
KLYH 261740Z 2618/2718 02008KT 2SM BR OVC003
     FM262100 35008KT 4SM -RA BR OVC004
     FM270100 32010G16KT 6SM -RA SCT007 OVC025
     FM270800 34008KT P6SM BKN035=



000
FTUS41 KRNK 261740
TAFROA
TAF
KROA 261740Z 2618/2718 25009KT 6SM -RA BR SCT004 OVC015
     FM270000 31012G20KT 6SM -RA SCT018 OVC025
     FM270300 31013G24KT P6SM -SN SCT025 BKN035=



000
FTUS41 KRNK 261740
TAFBLF
TAF
KBLF 261740Z 2618/2718 26005KT 4SM -RASN OVC004
     FM262000 30010G16KT 1SM -SN OVC004
      TEMPO 2621/2623 1/2SM SN VV002
     FM270000 30010G16KT 4SM -SN OVC007
     FM270600 30009KT 6SM -SN OVC012=



000
FTUS41 KRNK 261740
TAFBLF
TAF
KBLF 261740Z 2618/2718 26005KT 4SM -RASN OVC004
     FM262000 30010G16KT 1SM -SN OVC004
      TEMPO 2621/2623 1/2SM SN VV002
     FM270000 30010G16KT 4SM -SN OVC007
     FM270600 30009KT 6SM -SN OVC012=



000
FTUS41 KRNK 261740
TAFDAN
TAF
KDAN 261740Z 2618/2718 04007KT P6SM OVC015
     FM262200 34008KT 6SM -RA OVC019
     FM270100 32012G19KT P6SM OVC035
     FM270800 32010KT P6SM BKN050=



000
FTUS41 KRNK 261740
TAFROA
TAF
KROA 261740Z 2618/2718 25009KT 6SM -RA BR SCT004 OVC015
     FM270000 31012G20KT 6SM -RA SCT018 OVC025
     FM270300 31013G24KT P6SM -SN SCT025 BKN035=



000
FTUS41 KRNK 261740
TAFLWB
TAF
KLWB 261740Z 2618/2718 VRB03KT 5SM -RASN BR BKN004 OVC015
     FM262000 30007KT 3SM -RASN BR OVC004
     FM262200 31010G19KT 2SM -SN BR OVC004
      TEMPO 2622/2701 1SM -SN VV002
     FM270300 31010G18KT 4SM -SN BR SCT004 OVC012
     FM270800 29005KT P6SM -SHSN OVC015=



000
FTUS41 KRNK 261740
TAFLYH
TAF
KLYH 261740Z 2618/2718 02008KT 2SM BR OVC003
     FM262100 35008KT 4SM -RA BR OVC004
     FM270100 32010G16KT 6SM -RA SCT007 OVC025
     FM270800 34008KT P6SM BKN035=



000
FTUS41 KRNK 261552 AAA
TAFLWB
TAF AMD
KLWB 261552Z 2616/2712 VRB03KT 5SM -RASN BR SCT012 OVC025
     FM262000 30007KT 3SM -RASN BR SCT009 OVC012
     FM262200 31010G19KT 2SM -SN BR OVC009
      TEMPO 2622/2701 1SM -SN OVC005
     FM270300 31010G18KT 4SM -SN BR OVC012
     FM270800 29005KT P6SM OVC015=



000
FTUS41 KRNK 261552 AAA
TAFLWB
TAF AMD
KLWB 261552Z 2616/2712 VRB03KT 5SM -RASN BR SCT012 OVC025
     FM262000 30007KT 3SM -RASN BR SCT009 OVC012
     FM262200 31010G19KT 2SM -SN BR OVC009
      TEMPO 2622/2701 1SM -SN OVC005
     FM270300 31010G18KT 4SM -SN BR OVC012
     FM270800 29005KT P6SM OVC015=



000
FTUS41 KRNK 261549 AAA
TAFBLF
TAF AMD
KBLF 261549Z 2616/2712 26005KT 6SM -RASN OVC009
     FM262000 30010G16KT 1SM -SN OVC004
      TEMPO 2621/2623 1/2SM SN VV002
     FM270000 30010G16KT 4SM -SN OVC007
     FM270600 30009KT 6SM -SN OVC012=



000
FTUS41 KRNK 261549 AAA
TAFBLF
TAF AMD
KBLF 261549Z 2616/2712 26005KT 6SM -RASN OVC009
     FM262000 30010G16KT 1SM -SN OVC004
      TEMPO 2621/2623 1/2SM SN VV002
     FM270000 30010G16KT 4SM -SN OVC007
     FM270600 30009KT 6SM -SN OVC012=



000
FTUS41 KRNK 261543 AAB
TAFLYH
TAF AMD
KLYH 261543Z 2616/2712 05006KT 3SM -RA BR OVC005
      TEMPO 2616/2619 2SM BR OVC003
     FM262100 35008KT 4SM -RA BR OVC004
     FM270100 32010G16KT 6SM -RA SCT007 OVC025
     FM270800 34008KT P6SM BKN035=



000
FTUS41 KRNK 261543 AAB
TAFLYH
TAF AMD
KLYH 261543Z 2616/2712 05006KT 3SM -RA BR OVC005
      TEMPO 2616/2619 2SM BR OVC003
     FM262100 35008KT 4SM -RA BR OVC004
     FM270100 32010G16KT 6SM -RA SCT007 OVC025
     FM270800 34008KT P6SM BKN035=



000
FTUS41 KRNK 261251 AAA
TAFLYH
TAF AMD
KLYH 261251Z 2613/2712 03004KT P6SM BKN004 BKN030 OVC035
     FM261400 05006KT 6SM -RA BR OVC006
     FM261900 35008KT 6SM -RA BR BKN018
     FM270100 32010G16KT 6SM -RA SCT015 OVC025
     FM270800 34008KT P6SM BKN035=



000
FTUS41 KRNK 261251 AAA
TAFLYH
TAF AMD
KLYH 261251Z 2613/2712 03004KT P6SM BKN004 BKN030 OVC035
     FM261400 05006KT 6SM -RA BR OVC006
     FM261900 35008KT 6SM -RA BR BKN018
     FM270100 32010G16KT 6SM -RA SCT015 OVC025
     FM270800 34008KT P6SM BKN035=



000
FTUS41 KRNK 261137
TAFDAN
TAF
KDAN 261137Z 2612/2712 00000KT P6SM OVC060
     FM261600 35007KT 6SM -RA OVC022
     FM262200 34008KT 6SM -RA OVC019
     FM270100 32012G19KT P6SM OVC035
     FM270800 32010KT P6SM BKN050=



000
FTUS41 KRNK 261137
TAFLYH
TAF
KLYH 261137Z 2612/2712 02005KT P6SM FEW030 SCT070 OVC080
     FM261400 05006KT 6SM -RA BR BKN022
     FM261900 35008KT 6SM -RA BR BKN018
     FM270100 32010G16KT 6SM -RA SCT015 OVC025
     FM270800 34008KT P6SM BKN035=



000
FTUS41 KRNK 261137
TAFBLF
TAF
KBLF 261137Z 2612/2712 00000KT P6SM FEW029 BKN035
     FM261400 29008KT 2SM -RASN BR OVC010
     FM262100 30010G16KT 4SM -SN OVC007
     FM270000 30010G16KT 4SM -SN OVC010
     FM270600 30009KT 6SM -SN OVC012=



000
FTUS41 KRNK 261137
TAFROA
TAF
KROA 261137Z 2612/2712 00000KT P6SM OVC050
     FM261500 25009KT 6SM -RA BR BKN018
     FM270000 31012G20KT 6SM -RA SCT018 OVC025
     FM270300 31013G24KT P6SM -SN SCT025 BKN035=



000
FTUS41 KRNK 261137
TAFLWB
TAF
KLWB 261137Z 2612/2712 02007KT 1SM BR OVC001
     FM261400 VRB03KT 4SM -RASN OVC005
     FM261900 30005KT 2SM -RASN BR OVC009
     FM262200 31010G19KT 2SM -SN BR OVC009
     FM270300 31010G18KT 4SM -SN BR OVC012
     FM270800 29005KT P6SM OVC015=



000
FTUS41 KRNK 261137
TAFLYH
TAF
KLYH 261137Z 2612/2712 02005KT P6SM FEW030 SCT070 OVC080
     FM261400 05006KT 6SM -RA BR BKN022
     FM261900 35008KT 6SM -RA BR BKN018
     FM270100 32010G16KT 6SM -RA SCT015 OVC025
     FM270800 34008KT P6SM BKN035=



000
FTUS41 KRNK 261137
TAFDAN
TAF
KDAN 261137Z 2612/2712 00000KT P6SM OVC060
     FM261600 35007KT 6SM -RA OVC022
     FM262200 34008KT 6SM -RA OVC019
     FM270100 32012G19KT P6SM OVC035
     FM270800 32010KT P6SM BKN050=



000
FTUS41 KRNK 261137
TAFROA
TAF
KROA 261137Z 2612/2712 00000KT P6SM OVC050
     FM261500 25009KT 6SM -RA BR BKN018
     FM270000 31012G20KT 6SM -RA SCT018 OVC025
     FM270300 31013G24KT P6SM -SN SCT025 BKN035=



000
FTUS41 KRNK 261137
TAFLWB
TAF
KLWB 261137Z 2612/2712 02007KT 1SM BR OVC001
     FM261400 VRB03KT 4SM -RASN OVC005
     FM261900 30005KT 2SM -RASN BR OVC009
     FM262200 31010G19KT 2SM -SN BR OVC009
     FM270300 31010G18KT 4SM -SN BR OVC012
     FM270800 29005KT P6SM OVC015=



000
FTUS41 KRNK 261137
TAFBLF
TAF
KBLF 261137Z 2612/2712 00000KT P6SM FEW029 BKN035
     FM261400 29008KT 2SM -RASN BR OVC010
     FM262100 30010G16KT 4SM -SN OVC007
     FM270000 30010G16KT 4SM -SN OVC010
     FM270600 30009KT 6SM -SN OVC012=



    US Dept of Commerce
    National Oceanic and Atmospheric Administration
    National Weather Service
    1325 East West Highway
    Silver Spring, MD 20910
    Page Author: NWS Internet Services Team
Disclaimer
Information Quality
Credits
Glossary
Privacy Policy
Freedom of Information Act (FOIA)
About Us
Career Opportunities